sensor_id;sensor_type;location;lat;lon;timestamp;pressure;altitude;pressure_sealevel;temperature;humidity
63901;BME280;50538;53.482;10.294;2023-11-19T00:04:19;100494.41;;;5.07;100.00
63901;BME280;50538;53.482;10.294;2023-11-19T00:14:39;100470.44;;;5.10;100.00
63901;BME280;50538;53.482;10.294;2023-11-19T00:24:39;100449.25;;;5.12;100.00
63901;BME280;50538;53.482;10.294;2023-11-19T00:34:40;100412.41;;;5.12;100.00
63901;BME280;50538;53.482;10.294;2023-11-19T00:44:41;100388.44;;;5.15;100.00
63901;BME280;50538;53.482;10.294;2023-11-19T00:54:42;100366.28;;;5.17;100.00
63901;BME280;50538;53.482;10.294;2023-11-19T01:04:43;100355.47;;;5.20;100.00
63901;BME280;50538;53.482;10.294;2023-11-19T01:14:44;100329.03;;;5.22;100.00
63901;BME280;50538;53.482;10.294;2023-11-19T01:24:44;100298.25;;;5.22;100.00
63901;BME280;50538;53.482;10.294;2023-11-19T01:34:44;100255.72;;;5.27;100.00
63901;BME280;50538;53.482;10.294;2023-11-19T01:44:56;100234.13;;;5.23;100.00
63901;BME280;50538;53.482;10.294;2023-11-19T01:54:58;100215.69;;;5.23;100.00
63901;BME280;50538;53.482;10.294;2023-11-19T02:04:58;100197.28;;;5.23;100.00
63901;BME280;50538;53.482;10.294;2023-11-19T02:15:00;100177.06;;;5.24;100.00
63901;BME280;50538;53.482;10.294;2023-11-19T02:25:08;100164.72;;;5.24;100.00
63901;BME280;50538;53.482;10.294;2023-11-19T02:35:12;100126.75;;;5.27;100.00
63901;BME280;50538;53.482;10.294;2023-11-19T02:45:14;100115.25;;;5.28;100.00
63901;BME280;50538;53.482;10.294;2023-11-19T02:55:14;100074.50;;;5.32;100.00
63901;BME280;50538;53.482;10.294;2023-11-19T03:05:15;100049.66;;;5.34;100.00
63901;BME280;50538;53.482;10.294;2023-11-19T03:15:16;100041.31;;;5.39;100.00
63901;BME280;50538;53.482;10.294;2023-11-19T03:25:17;100030.63;;;5.41;100.00
63901;BME280;50538;53.482;10.294;2023-11-19T03:35:18;100002.03;;;5.46;100.00
63901;BME280;50538;53.482;10.294;2023-11-19T03:45:18;99959.00;;;5.55;100.00
63901;BME280;50538;53.482;10.294;2023-11-19T03:55:19;99958.41;;;5.61;100.00
63901;BME280;50538;53.482;10.294;2023-11-19T04:05:19;99949.75;;;5.68;100.00
63901;BME280;50538;53.482;10.294;2023-11-19T04:15:19;99940.41;;;5.74;100.00
63901;BME280;50538;53.482;10.294;2023-11-19T04:25:20;99923.31;;;5.78;100.00
63901;BME280;50538;53.482;10.294;2023-11-19T04:35:20;99913.28;;;5.82;100.00
63901;BME280;50538;53.482;10.294;2023-11-19T04:45:21;99894.91;;;5.90;100.00
63901;BME280;50538;53.482;10.294;2023-11-19T04:55:21;99890.63;;;5.97;100.00
63901;BME280;50538;53.482;10.294;2023-11-19T05:05:22;99892.47;;;6.05;100.00
63901;BME280;50538;53.482;10.294;2023-11-19T05:15:22;99877.53;;;6.13;100.00
63901;BME280;50538;53.482;10.294;2023-11-19T05:25:24;99862.56;;;6.22;100.00
63901;BME280;50538;53.482;10.294;2023-11-19T05:35:25;99850.94;;;6.32;100.00
63901;BME280;50538;53.482;10.294;2023-11-19T05:45:26;99844.53;;;6.43;100.00
63901;BME280;50538;53.482;10.294;2023-11-19T05:55:26;99843.44;;;6.62;100.00
63901;BME280;50538;53.482;10.294;2023-11-19T06:05:28;99833.72;;;6.79;100.00
63901;BME280;50538;53.482;10.294;2023-11-19T06:15:28;99845.47;;;7.01;100.00
63901;BME280;50538;53.482;10.294;2023-11-19T06:25:29;99837.69;;;7.23;100.00
63901;BME280;50538;53.482;10.294;2023-11-19T06:35:29;99839.63;;;7.54;100.00
63901;BME280;50538;53.482;10.294;2023-11-19T06:45:36;99846.31;;;7.89;100.00
63901;BME280;50538;53.482;10.294;2023-11-19T06:55:39;99834.59;;;8.22;100.00
63901;BME280;50538;53.482;10.294;2023-11-19T07:05:39;99834.53;;;8.61;100.00
63901;BME280;50538;53.482;10.294;2023-11-19T07:15:40;99837.50;;;9.12;100.00
63901;BME280;50538;53.482;10.294;2023-11-19T07:25:40;99835.75;;;9.57;100.00
63901;BME280;50538;53.482;10.294;2023-11-19T07:35:42;99836.59;;;9.87;100.00
63901;BME280;50538;53.482;10.294;2023-11-19T07:45:43;99851.56;;;9.94;100.00
63901;BME280;50538;53.482;10.294;2023-11-19T07:55:46;99851.47;;;10.03;100.00
63901;BME280;50538;53.482;10.294;2023-11-19T08:05:46;99855.13;;;10.16;100.00
63901;BME280;50538;53.482;10.294;2023-11-19T08:15:47;99861.25;;;10.32;100.00
63901;BME280;50538;53.482;10.294;2023-11-19T08:25:47;99876.63;;;10.36;100.00
63901;BME280;50538;53.482;10.294;2023-11-19T08:35:50;99875.25;;;10.40;100.00
63901;BME280;50538;53.482;10.294;2023-11-19T08:45:51;99882.00;;;10.43;100.00
63901;BME280;50538;53.482;10.294;2023-11-19T08:55:51;99893.34;;;10.51;100.00
63901;BME280;50538;53.482;10.294;2023-11-19T09:05:52;99899.91;;;10.55;100.00
63901;BME280;50538;53.482;10.294;2023-11-19T09:15:52;99908.84;;;10.69;100.00
63901;BME280;50538;53.482;10.294;2023-11-19T09:25:53;99912.13;;;10.86;100.00
63901;BME280;50538;53.482;10.294;2023-11-19T09:35:53;99923.44;;;11.09;100.00
63901;BME280;50538;53.482;10.294;2023-11-19T09:45:54;99916.84;;;11.26;100.00
63901;BME280;50538;53.482;10.294;2023-11-19T09:55:55;99927.78;;;11.38;100.00
63901;BME280;50538;53.482;10.294;2023-11-19T10:05:56;99917.78;;;11.40;100.00
63901;BME280;50538;53.482;10.294;2023-11-19T10:15:57;99911.06;;;11.44;100.00
63901;BME280;50538;53.482;10.294;2023-11-19T10:26:12;99910.69;;;11.47;100.00
63901;BME280;50538;53.482;10.294;2023-11-19T10:36:22;99913.59;;;11.52;100.00
63901;BME280;50538;53.482;10.294;2023-11-19T10:46:36;99911.31;;;11.49;100.00
63901;BME280;50538;53.482;10.294;2023-11-19T10:56:37;99926.38;;;11.42;100.00
63901;BME280;50538;53.482;10.294;2023-11-19T11:06:43;99913.72;;;11.44;100.00
63901;BME280;50538;53.482;10.294;2023-11-19T11:16:44;99926.50;;;11.34;100.00
63901;BME280;50538;53.482;10.294;2023-11-19T11:27:00;99926.63;;;11.26;100.00
63901;BME280;50538;53.482;10.294;2023-11-19T11:47:15;99937.13;;;11.13;100.00
63901;BME280;50538;53.482;10.294;2023-11-19T11:57:21;99933.53;;;11.20;100.00
63901;BME280;50538;53.482;10.294;2023-11-19T12:07:24;99926.44;;;11.27;100.00
63901;BME280;50538;53.482;10.294;2023-11-19T12:17:48;99927.66;;;11.46;100.00
63901;BME280;50538;53.482;10.294;2023-11-19T12:27:50;99928.47;;;11.47;100.00
63901;BME280;50538;53.482;10.294;2023-11-19T12:37:51;99921.75;;;11.51;100.00
63901;BME280;50538;53.482;10.294;2023-11-19T12:48:05;99926.94;;;11.59;100.00
63901;BME280;50538;53.482;10.294;2023-11-19T12:58:06;99929.94;;;11.77;100.00
63901;BME280;50538;53.482;10.294;2023-11-19T13:08:08;99920.03;;;11.92;100.00
63901;BME280;50538;53.482;10.294;2023-11-19T13:18:29;99913.38;;;12.10;100.00
63901;BME280;50538;53.482;10.294;2023-11-19T13:29:19;99916.81;;;12.04;100.00
63901;BME280;50538;53.482;10.294;2023-11-19T13:39:46;99904.00;;;11.86;100.00
63901;BME280;50538;53.482;10.294;2023-11-19T13:50:36;99910.69;;;11.75;100.00
63901;BME280;50538;53.482;10.294;2023-11-19T14:00:47;99899.41;;;11.73;100.00
63901;BME280;50538;53.482;10.294;2023-11-19T14:10:56;99896.38;;;11.76;100.00
63901;BME280;50538;53.482;10.294;2023-11-19T14:21:17;99905.56;;;11.74;100.00
63901;BME280;50538;53.482;10.294;2023-11-19T14:31:22;99914.28;;;11.61;100.00
63901;BME280;50538;53.482;10.294;2023-11-19T14:41:33;99918.47;;;11.49;100.00
63901;BME280;50538;53.482;10.294;2023-11-19T14:51:37;99914.06;;;11.35;100.00
63901;BME280;50538;53.482;10.294;2023-11-19T15:01:39;99926.00;;;11.24;100.00
63901;BME280;50538;53.482;10.294;2023-11-19T15:11:50;99922.28;;;11.18;100.00
63901;BME280;50538;53.482;10.294;2023-11-19T15:22:21;99931.00;;;11.12;100.00
63901;BME280;50538;53.482;10.294;2023-11-19T15:32:22;99947.91;;;11.05;100.00
63901;BME280;50538;53.482;10.294;2023-11-19T15:53:55;99957.00;;;10.95;100.00
63901;BME280;50538;53.482;10.294;2023-11-19T16:04:20;99968.38;;;10.89;100.00
63901;BME280;50538;53.482;10.294;2023-11-19T19:50:46;100026.88;;;10.00;100.00
63901;BME280;50538;53.482;10.294;2023-11-19T20:01:19;100040.78;;;10.02;100.00
63901;BME280;50538;53.482;10.294;2023-11-19T20:11:58;100040.63;;;10.03;100.00
63901;BME280;50538;53.482;10.294;2023-11-19T21:47:57;100017.22;;;10.07;100.00
63901;BME280;50538;53.482;10.294;2023-11-19T21:58:15;99997.63;;;10.08;100.00
63901;BME280;50538;53.482;10.294;2023-11-19T22:41:42;99981.72;;;10.08;100.00
63901;BME280;50538;53.482;10.294;2023-11-19T22:51:57;99966.00;;;10.06;100.00
63901;BME280;50538;53.482;10.294;2023-11-19T23:02:11;99959.50;;;10.09;100.00
63901;BME280;50538;53.482;10.294;2023-11-19T23:12:22;99962.78;;;10.11;100.00
